sensor_id;sensor_type;location;lat;lon;timestamp;P1;durP1;ratioP1;P2;durP2;ratioP2
68985;SDS011;56035;37.534;-122.308;2022-09-02T00:01:51;8.13;;;3.58;;
68985;SDS011;56035;37.534;-122.308;2022-09-02T00:06:46;7.25;;;3.50;;
68985;SDS011;56035;37.534;-122.308;2022-09-02T00:09:14;7.72;;;3.33;;
68985;SDS011;56035;37.534;-122.308;2022-09-02T00:11:43;7.85;;;3.30;;
68985;SDS011;56035;37.534;-122.308;2022-09-02T00:14:13;8.48;;;3.55;;
68985;SDS011;56035;37.534;-122.308;2022-09-02T00:16:42;8.20;;;3.40;;
68985;SDS011;56035;37.534;-122.308;2022-09-02T00:19:19;9.43;;;3.78;;
68985;SDS011;56035;37.534;-122.308;2022-09-02T00:21:46;6.07;;;3.40;;
68985;SDS011;56035;37.534;-122.308;2022-09-02T00:24:13;9.02;;;3.60;;
68985;SDS011;56035;37.534;-122.308;2022-09-02T00:29:05;7.57;;;4.47;;
68985;SDS011;56035;37.534;-122.308;2022-09-02T00:31:31;9.60;;;3.65;;
68985;SDS011;56035;37.534;-122.308;2022-09-02T00:33:58;8.13;;;3.50;;
68985;SDS011;56035;37.534;-122.308;2022-09-02T00:38:50;10.30;;;4.00;;
68985;SDS011;56035;37.534;-122.308;2022-09-02T00:41:18;9.98;;;3.60;;
68985;SDS011;56035;37.534;-122.308;2022-09-02T00:43:50;6.65;;;3.42;;
68985;SDS011;56035;37.534;-122.308;2022-09-02T00:46:20;9.05;;;3.60;;
68985;SDS011;56035;37.534;-122.308;2022-09-02T00:51:38;8.50;;;3.78;;
68985;SDS011;56035;37.534;-122.308;2022-09-02T00:54:18;9.30;;;4.00;;
68985;SDS011;56035;37.534;-122.308;2022-09-02T00:56:47;9.23;;;3.88;;
68985;SDS011;56035;37.534;-122.308;2022-09-02T00:59:17;10.55;;;3.78;;
68985;SDS011;56035;37.534;-122.308;2022-09-02T01:01:48;10.13;;;4.50;;
68985;SDS011;56035;37.534;-122.308;2022-09-02T01:04:14;7.25;;;3.58;;
68985;SDS011;56035;37.534;-122.308;2022-09-02T01:09:09;10.05;;;3.40;;
68985;SDS011;56035;37.534;-122.308;2022-09-02T01:11:40;7.75;;;3.47;;
68985;SDS011;56035;37.534;-122.308;2022-09-02T01:14:09;10.02;;;3.85;;
68985;SDS011;56035;37.534;-122.308;2022-09-02T01:16:40;9.18;;;3.92;;
68985;SDS011;56035;37.534;-122.308;2022-09-02T01:19:20;10.82;;;3.95;;
68985;SDS011;56035;37.534;-122.308;2022-09-02T01:21:53;8.52;;;3.85;;
68985;SDS011;56035;37.534;-122.308;2022-09-02T01:24:21;9.00;;;3.50;;
68985;SDS011;56035;37.534;-122.308;2022-09-02T01:26:51;8.95;;;3.63;;
68985;SDS011;56035;37.534;-122.308;2022-09-02T01:29:21;10.15;;;4.38;;
68985;SDS011;56035;37.534;-122.308;2022-09-02T01:31:48;11.00;;;3.90;;
68985;SDS011;56035;37.534;-122.308;2022-09-02T01:34:15;9.70;;;3.83;;
68985;SDS011;56035;37.534;-122.308;2022-09-02T01:36:42;10.38;;;4.22;;
68985;SDS011;56035;37.534;-122.308;2022-09-02T01:39:09;10.57;;;4.70;;
68985;SDS011;56035;37.534;-122.308;2022-09-02T01:41:37;11.15;;;4.47;;
68985;SDS011;56035;37.534;-122.308;2022-09-02T01:44:04;12.10;;;4.57;;
68985;SDS011;56035;37.534;-122.308;2022-09-02T01:46:31;10.52;;;4.47;;
68985;SDS011;56035;37.534;-122.308;2022-09-02T01:48:59;12.68;;;4.95;;
68985;SDS011;56035;37.534;-122.308;2022-09-02T01:51:25;10.13;;;4.65;;
68985;SDS011;56035;37.534;-122.308;2022-09-02T01:53:51;11.23;;;4.80;;
68985;SDS011;56035;37.534;-122.308;2022-09-02T01:56:17;12.38;;;4.72;;
68985;SDS011;56035;37.534;-122.308;2022-09-02T01:58:44;12.55;;;5.03;;
68985;SDS011;56035;37.534;-122.308;2022-09-02T02:01:10;9.82;;;5.03;;
68985;SDS011;56035;37.534;-122.308;2022-09-02T02:03:36;10.48;;;4.40;;
68985;SDS011;56035;37.534;-122.308;2022-09-02T02:06:10;11.93;;;4.57;;
68985;SDS011;56035;37.534;-122.308;2022-09-02T02:08:38;11.48;;;4.50;;
68985;SDS011;56035;37.534;-122.308;2022-09-02T02:11:05;10.05;;;4.93;;
68985;SDS011;56035;37.534;-122.308;2022-09-02T02:15:57;12.57;;;5.15;;
68985;SDS011;56035;37.534;-122.308;2022-09-02T02:18:23;10.10;;;4.68;;
68985;SDS011;56035;37.534;-122.308;2022-09-02T02:20:50;10.18;;;4.10;;
68985;SDS011;56035;37.534;-122.308;2022-09-02T02:23:16;13.27;;;5.63;;
68985;SDS011;56035;37.534;-122.308;2022-09-02T02:25:42;12.32;;;5.03;;
68985;SDS011;56035;37.534;-122.308;2022-09-02T02:28:08;11.23;;;4.65;;
68985;SDS011;56035;37.534;-122.308;2022-09-02T02:30:35;9.43;;;4.80;;
68985;SDS011;56035;37.534;-122.308;2022-09-02T02:33:01;13.45;;;5.63;;
68985;SDS011;56035;37.534;-122.308;2022-09-02T02:35:27;10.73;;;4.90;;
68985;SDS011;56035;37.534;-122.308;2022-09-02T02:37:53;13.30;;;5.88;;
68985;SDS011;56035;37.534;-122.308;2022-09-02T02:40:21;14.80;;;5.18;;
68985;SDS011;56035;37.534;-122.308;2022-09-02T02:42:48;12.32;;;5.20;;
68985;SDS011;56035;37.534;-122.308;2022-09-02T02:45:17;15.38;;;5.30;;
68985;SDS011;56035;37.534;-122.308;2022-09-02T02:47:44;14.30;;;5.53;;
68985;SDS011;56035;37.534;-122.308;2022-09-02T02:50:12;12.52;;;5.35;;
68985;SDS011;56035;37.534;-122.308;2022-09-02T02:52:40;10.75;;;5.07;;
68985;SDS011;56035;37.534;-122.308;2022-09-02T02:55:07;13.48;;;5.63;;
68985;SDS011;56035;37.534;-122.308;2022-09-02T02:57:35;11.93;;;4.75;;
68985;SDS011;56035;37.534;-122.308;2022-09-02T03:00:07;11.55;;;4.72;;
68985;SDS011;56035;37.534;-122.308;2022-09-02T03:02:39;12.00;;;4.65;;
68985;SDS011;56035;37.534;-122.308;2022-09-02T03:05:06;10.40;;;4.03;;
68985;SDS011;56035;37.534;-122.308;2022-09-02T03:07:34;8.68;;;3.95;;
68985;SDS011;56035;37.534;-122.308;2022-09-02T03:10:00;10.88;;;3.88;;
68985;SDS011;56035;37.534;-122.308;2022-09-02T03:12:27;9.40;;;3.80;;
68985;SDS011;56035;37.534;-122.308;2022-09-02T03:14:55;9.35;;;4.00;;
68985;SDS011;56035;37.534;-122.308;2022-09-02T03:17:22;10.35;;;3.88;;
68985;SDS011;56035;37.534;-122.308;2022-09-02T03:19:48;12.95;;;5.07;;
68985;SDS011;56035;37.534;-122.308;2022-09-02T03:22:17;8.45;;;3.47;;
68985;SDS011;56035;37.534;-122.308;2022-09-02T03:24:43;10.30;;;4.10;;
68985;SDS011;56035;37.534;-122.308;2022-09-02T03:27:09;10.45;;;3.65;;
68985;SDS011;56035;37.534;-122.308;2022-09-02T03:29:36;9.52;;;3.80;;
68985;SDS011;56035;37.534;-122.308;2022-09-02T03:32:02;11.80;;;3.88;;
68985;SDS011;56035;37.534;-122.308;2022-09-02T03:34:29;8.00;;;3.72;;
68985;SDS011;56035;37.534;-122.308;2022-09-02T03:36:56;11.75;;;4.05;;
68985;SDS011;56035;37.534;-122.308;2022-09-02T03:39:22;10.32;;;3.85;;
68985;SDS011;56035;37.534;-122.308;2022-09-02T03:41:52;9.55;;;3.88;;
68985;SDS011;56035;37.534;-122.308;2022-09-02T03:44:19;11.38;;;4.18;;
68985;SDS011;56035;37.534;-122.308;2022-09-02T03:46:45;10.48;;;3.90;;
68985;SDS011;56035;37.534;-122.308;2022-09-02T03:49:11;10.05;;;4.20;;
68985;SDS011;56035;37.534;-122.308;2022-09-02T03:51:40;14.50;;;4.20;;
68985;SDS011;56035;37.534;-122.308;2022-09-02T03:54:07;11.05;;;3.92;;
68985;SDS011;56035;37.534;-122.308;2022-09-02T03:56:34;10.32;;;4.10;;
68985;SDS011;56035;37.534;-122.308;2022-09-02T03:59:02;10.25;;;3.97;;
68985;SDS011;56035;37.534;-122.308;2022-09-02T04:01:28;11.88;;;4.07;;
68985;SDS011;56035;37.534;-122.308;2022-09-02T04:03:54;13.18;;;4.50;;
68985;SDS011;56035;37.534;-122.308;2022-09-02T04:06:21;14.55;;;4.95;;
68985;SDS011;56035;37.534;-122.308;2022-09-02T04:08:49;12.20;;;4.95;;
68985;SDS011;56035;37.534;-122.308;2022-09-02T04:11:17;12.68;;;4.93;;
68985;SDS011;56035;37.534;-122.308;2022-09-02T04:13:45;10.13;;;4.18;;
68985;SDS011;56035;37.534;-122.308;2022-09-02T04:16:14;14.02;;;5.10;;
68985;SDS011;56035;37.534;-122.308;2022-09-02T04:18:43;14.00;;;4.85;;
68985;SDS011;56035;37.534;-122.308;2022-09-02T04:21:09;13.43;;;4.95;;
68985;SDS011;56035;37.534;-122.308;2022-09-02T04:23:36;10.88;;;4.70;;
68985;SDS011;56035;37.534;-122.308;2022-09-02T04:26:06;14.77;;;4.90;;
68985;SDS011;56035;37.534;-122.308;2022-09-02T04:28:35;12.18;;;5.07;;
68985;SDS011;56035;37.534;-122.308;2022-09-02T04:31:05;11.88;;;4.53;;
68985;SDS011;56035;37.534;-122.308;2022-09-02T04:33:32;13.17;;;5.13;;
68985;SDS011;56035;37.534;-122.308;2022-09-02T04:36:00;14.63;;;5.43;;
68985;SDS011;56035;37.534;-122.308;2022-09-02T04:38:29;10.38;;;4.93;;
68985;SDS011;56035;37.534;-122.308;2022-09-02T04:40:56;14.68;;;5.18;;
68985;SDS011;56035;37.534;-122.308;2022-09-02T04:43:22;12.80;;;4.80;;
68985;SDS011;56035;37.534;-122.308;2022-09-02T04:45:49;10.95;;;4.95;;
68985;SDS011;56035;37.534;-122.308;2022-09-02T04:48:15;12.07;;;4.95;;
68985;SDS011;56035;37.534;-122.308;2022-09-02T04:50:43;11.37;;;4.73;;
68985;SDS011;56035;37.534;-122.308;2022-09-02T04:53:10;8.25;;;4.15;;
68985;SDS011;56035;37.534;-122.308;2022-09-02T04:55:40;12.95;;;4.10;;
68985;SDS011;56035;37.534;-122.308;2022-09-02T04:58:07;10.83;;;4.17;;
68985;SDS011;56035;37.534;-122.308;2022-09-02T05:00:36;11.90;;;4.90;;
68985;SDS011;56035;37.534;-122.308;2022-09-02T05:03:03;12.33;;;4.33;;
68985;SDS011;56035;37.534;-122.308;2022-09-02T05:05:31;10.77;;;4.03;;
68985;SDS011;56035;37.534;-122.308;2022-09-02T05:07:58;11.17;;;4.00;;
68985;SDS011;56035;37.534;-122.308;2022-09-02T05:10:24;13.35;;;4.35;;
68985;SDS011;56035;37.534;-122.308;2022-09-02T05:12:50;12.13;;;4.57;;
68985;SDS011;56035;37.534;-122.308;2022-09-02T05:15:16;10.52;;;3.97;;
68985;SDS011;56035;37.534;-122.308;2022-09-02T05:17:43;10.43;;;3.92;;
68985;SDS011;56035;37.534;-122.308;2022-09-02T05:20:10;12.43;;;4.10;;
68985;SDS011;56035;37.534;-122.308;2022-09-02T05:25:03;15.83;;;5.30;;
68985;SDS011;56035;37.534;-122.308;2022-09-02T05:27:33;14.60;;;5.53;;
68985;SDS011;56035;37.534;-122.308;2022-09-02T05:29:59;16.08;;;5.95;;
68985;SDS011;56035;37.534;-122.308;2022-09-02T05:34:52;15.30;;;5.37;;
68985;SDS011;56035;37.534;-122.308;2022-09-02T05:37:20;13.70;;;6.13;;
68985;SDS011;56035;37.534;-122.308;2022-09-02T05:39:46;14.50;;;5.50;;
68985;SDS011;56035;37.534;-122.308;2022-09-02T05:42:13;12.98;;;5.22;;
68985;SDS011;56035;37.534;-122.308;2022-09-02T05:44:40;13.80;;;5.00;;
68985;SDS011;56035;37.534;-122.308;2022-09-02T05:47:09;15.43;;;5.30;;
68985;SDS011;56035;37.534;-122.308;2022-09-02T05:49:35;15.48;;;5.93;;
68985;SDS011;56035;37.534;-122.308;2022-09-02T05:52:02;15.40;;;5.13;;
68985;SDS011;56035;37.534;-122.308;2022-09-02T05:54:30;15.00;;;5.83;;
68985;SDS011;56035;37.534;-122.308;2022-09-02T05:56:58;12.23;;;5.30;;
68985;SDS011;56035;37.534;-122.308;2022-09-02T05:59:27;14.07;;;5.60;;
68985;SDS011;56035;37.534;-122.308;2022-09-02T06:01:54;14.30;;;5.77;;
68985;SDS011;56035;37.534;-122.308;2022-09-02T06:04:21;13.57;;;6.05;;
68985;SDS011;56035;37.534;-122.308;2022-09-02T06:06:48;16.33;;;6.10;;
68985;SDS011;56035;37.534;-122.308;2022-09-02T06:09:15;11.00;;;5.63;;
68985;SDS011;56035;37.534;-122.308;2022-09-02T06:11:44;13.70;;;6.30;;
68985;SDS011;56035;37.534;-122.308;2022-09-02T06:14:17;18.33;;;6.77;;
68985;SDS011;56035;37.534;-122.308;2022-09-02T06:16:46;14.03;;;6.57;;
68985;SDS011;56035;37.534;-122.308;2022-09-02T06:19:13;15.00;;;6.53;;
68985;SDS011;56035;37.534;-122.308;2022-09-02T06:21:39;17.77;;;7.10;;
68985;SDS011;56035;37.534;-122.308;2022-09-02T06:24:07;15.93;;;7.50;;
68985;SDS011;56035;37.534;-122.308;2022-09-02T06:26:35;14.53;;;6.37;;
68985;SDS011;56035;37.534;-122.308;2022-09-02T06:29:03;12.20;;;6.37;;
68985;SDS011;56035;37.534;-122.308;2022-09-02T06:31:30;13.87;;;6.47;;
68985;SDS011;56035;37.534;-122.308;2022-09-02T06:33:57;15.30;;;7.40;;
68985;SDS011;56035;37.534;-122.308;2022-09-02T06:36:24;14.07;;;6.13;;
68985;SDS011;56035;37.534;-122.308;2022-09-02T06:38:53;13.13;;;6.60;;
68985;SDS011;56035;37.534;-122.308;2022-09-02T06:41:22;13.53;;;6.40;;
68985;SDS011;56035;37.534;-122.308;2022-09-02T06:43:57;15.50;;;6.53;;
68985;SDS011;56035;37.534;-122.308;2022-09-02T06:46:27;14.63;;;7.10;;
68985;SDS011;56035;37.534;-122.308;2022-09-02T06:48:59;14.03;;;6.40;;
68985;SDS011;56035;37.534;-122.308;2022-09-02T06:53:54;12.27;;;6.40;;
68985;SDS011;56035;37.534;-122.308;2022-09-02T06:56:21;13.02;;;6.25;;
68985;SDS011;56035;37.534;-122.308;2022-09-02T06:58:47;13.73;;;6.45;;
68985;SDS011;56035;37.534;-122.308;2022-09-02T07:01:24;12.88;;;6.57;;
68985;SDS011;56035;37.534;-122.308;2022-09-02T07:03:52;13.80;;;6.27;;
68985;SDS011;56035;37.534;-122.308;2022-09-02T07:06:38;16.60;;;6.97;;
68985;SDS011;56035;37.534;-122.308;2022-09-02T07:09:06;14.83;;;6.90;;
68985;SDS011;56035;37.534;-122.308;2022-09-02T07:11:34;14.23;;;6.67;;
68985;SDS011;56035;37.534;-122.308;2022-09-02T07:14:02;12.37;;;6.63;;
68985;SDS011;56035;37.534;-122.308;2022-09-02T07:16:29;12.10;;;6.43;;
68985;SDS011;56035;37.534;-122.308;2022-09-02T07:18:58;12.90;;;6.20;;
68985;SDS011;56035;37.534;-122.308;2022-09-02T07:21:29;13.67;;;6.43;;
68985;SDS011;56035;37.534;-122.308;2022-09-02T07:23:59;14.80;;;6.77;;
68985;SDS011;56035;37.534;-122.308;2022-09-02T07:26:26;15.50;;;7.47;;
68985;SDS011;56035;37.534;-122.308;2022-09-02T07:28:53;13.95;;;6.18;;
68985;SDS011;56035;37.534;-122.308;2022-09-02T07:33:47;12.40;;;6.28;;
68985;SDS011;56035;37.534;-122.308;2022-09-02T07:36:13;13.98;;;6.70;;
68985;SDS011;56035;37.534;-122.308;2022-09-02T07:38:40;16.35;;;6.35;;
68985;SDS011;56035;37.534;-122.308;2022-09-02T07:41:27;13.63;;;5.87;;
68985;SDS011;56035;37.534;-122.308;2022-09-02T07:46:19;10.77;;;5.40;;
68985;SDS011;56035;37.534;-122.308;2022-09-02T07:48:46;12.15;;;4.85;;
68985;SDS011;56035;37.534;-122.308;2022-09-02T07:51:16;12.03;;;5.67;;
68985;SDS011;56035;37.534;-122.308;2022-09-02T07:53:43;10.20;;;4.80;;
68985;SDS011;56035;37.534;-122.308;2022-09-02T07:56:10;13.80;;;5.25;;
68985;SDS011;56035;37.534;-122.308;2022-09-02T07:58:38;13.67;;;5.83;;
68985;SDS011;56035;37.534;-122.308;2022-09-02T08:01:06;12.20;;;5.40;;
68985;SDS011;56035;37.534;-122.308;2022-09-02T08:03:32;11.00;;;5.43;;
68985;SDS011;56035;37.534;-122.308;2022-09-02T08:05:59;14.52;;;5.85;;
68985;SDS011;56035;37.534;-122.308;2022-09-02T08:08:25;13.80;;;5.28;;
68985;SDS011;56035;37.534;-122.308;2022-09-02T08:10:53;13.48;;;5.93;;
68985;SDS011;56035;37.534;-122.308;2022-09-02T08:13:20;13.00;;;5.53;;
68985;SDS011;56035;37.534;-122.308;2022-09-02T08:15:47;13.05;;;5.32;;
68985;SDS011;56035;37.534;-122.308;2022-09-02T08:18:13;12.18;;;5.65;;
68985;SDS011;56035;37.534;-122.308;2022-09-02T08:20:39;11.13;;;5.68;;
68985;SDS011;56035;37.534;-122.308;2022-09-02T08:23:05;13.20;;;5.32;;
68985;SDS011;56035;37.534;-122.308;2022-09-02T08:25:33;10.52;;;5.20;;
68985;SDS011;56035;37.534;-122.308;2022-09-02T08:28:00;11.63;;;4.83;;
68985;SDS011;56035;37.534;-122.308;2022-09-02T08:30:27;11.10;;;4.83;;
68985;SDS011;56035;37.534;-122.308;2022-09-02T08:32:53;10.55;;;4.90;;
68985;SDS011;56035;37.534;-122.308;2022-09-02T08:35:19;13.05;;;5.25;;
68985;SDS011;56035;37.534;-122.308;2022-09-02T08:37:45;9.57;;;4.57;;
68985;SDS011;56035;37.534;-122.308;2022-09-02T08:40:16;8.88;;;4.43;;
68985;SDS011;56035;37.534;-122.308;2022-09-02T08:42:53;10.93;;;4.33;;
68985;SDS011;56035;37.534;-122.308;2022-09-02T08:45:26;11.77;;;4.63;;
68985;SDS011;56035;37.534;-122.308;2022-09-02T08:48:15;12.37;;;4.80;;
68985;SDS011;56035;37.534;-122.308;2022-09-02T08:50:46;10.93;;;4.40;;
68985;SDS011;56035;37.534;-122.308;2022-09-02T08:55:52;11.10;;;4.93;;
68985;SDS011;56035;37.534;-122.308;2022-09-02T08:58:21;8.87;;;4.10;;
68985;SDS011;56035;37.534;-122.308;2022-09-02T09:04:19;9.43;;;4.70;;
68985;SDS011;56035;37.534;-122.308;2022-09-02T09:15:16;7.77;;;4.03;;
68985;SDS011;56035;37.534;-122.308;2022-09-02T09:17:55;9.40;;;4.00;;
68985;SDS011;56035;37.534;-122.308;2022-09-02T09:20:27;7.90;;;4.17;;
68985;SDS011;56035;37.534;-122.308;2022-09-02T09:23:01;11.13;;;4.67;;
68985;SDS011;56035;37.534;-122.308;2022-09-02T09:25:40;9.30;;;3.80;;
68985;SDS011;56035;37.534;-122.308;2022-09-02T09:28:09;9.10;;;3.77;;
68985;SDS011;56035;37.534;-122.308;2022-09-02T09:30:35;8.57;;;3.53;;
68985;SDS011;56035;37.534;-122.308;2022-09-02T09:33:01;8.35;;;4.05;;
68985;SDS011;56035;37.534;-122.308;2022-09-02T09:38:12;7.37;;;3.37;;
68985;SDS011;56035;37.534;-122.308;2022-09-02T09:40:39;6.32;;;3.33;;
68985;SDS011;56035;37.534;-122.308;2022-09-02T09:45:35;6.53;;;3.40;;
68985;SDS011;56035;37.534;-122.308;2022-09-02T09:50:47;10.73;;;3.73;;
68985;SDS011;56035;37.534;-122.308;2022-09-02T09:53:15;7.00;;;3.40;;
68985;SDS011;56035;37.534;-122.308;2022-09-02T09:56:45;9.53;;;3.87;;
68985;SDS011;56035;37.534;-122.308;2022-09-02T09:58:43;7.38;;;3.78;;
68985;SDS011;56035;37.534;-122.308;2022-09-02T10:01:25;8.80;;;3.50;;
68985;SDS011;56035;37.534;-122.308;2022-09-02T10:11:55;8.68;;;4.15;;
68985;SDS011;56035;37.534;-122.308;2022-09-02T10:14:39;6.25;;;3.20;;
68985;SDS011;56035;37.534;-122.308;2022-09-02T10:17:18;7.77;;;3.63;;
68985;SDS011;56035;37.534;-122.308;2022-09-02T10:22:39;7.33;;;3.80;;
68985;SDS011;56035;37.534;-122.308;2022-09-02T10:25:24;7.67;;;3.80;;
68985;SDS011;56035;37.534;-122.308;2022-09-02T10:29:00;8.00;;;4.10;;
68985;SDS011;56035;37.534;-122.308;2022-09-02T10:33:39;9.03;;;4.10;;
68985;SDS011;56035;37.534;-122.308;2022-09-02T10:39:10;11.30;;;4.43;;
68985;SDS011;56035;37.534;-122.308;2022-09-02T10:41:49;9.20;;;4.00;;
68985;SDS011;56035;37.534;-122.308;2022-09-02T10:46:59;8.43;;;3.70;;
68985;SDS011;56035;37.534;-122.308;2022-09-02T10:58:23;8.10;;;3.40;;
68985;SDS011;56035;37.534;-122.308;2022-09-02T11:01:29;12.17;;;4.03;;
68985;SDS011;56035;37.534;-122.308;2022-09-02T11:06:56;9.10;;;3.57;;
68985;SDS011;56035;37.534;-122.308;2022-09-02T11:09:37;7.57;;;3.37;;
68985;SDS011;56035;37.534;-122.308;2022-09-02T11:20:43;8.60;;;4.10;;
68985;SDS011;56035;37.534;-122.308;2022-09-02T11:26:12;7.10;;;3.73;;
68985;SDS011;56035;37.534;-122.308;2022-09-02T11:31:37;8.27;;;4.07;;
68985;SDS011;56035;37.534;-122.308;2022-09-02T11:34:23;10.88;;;3.95;;
68985;SDS011;56035;37.534;-122.308;2022-09-02T11:37:09;9.90;;;4.47;;
68985;SDS011;56035;37.534;-122.308;2022-09-02T11:39:40;7.50;;;3.90;;
68985;SDS011;56035;37.534;-122.308;2022-09-02T11:45:07;8.77;;;4.00;;
68985;SDS011;56035;37.534;-122.308;2022-09-02T11:53:42;8.70;;;4.53;;
68985;SDS011;56035;37.534;-122.308;2022-09-02T11:58:40;11.33;;;4.33;;
68985;SDS011;56035;37.534;-122.308;2022-09-02T12:04:31;11.73;;;4.80;;
68985;SDS011;56035;37.534;-122.308;2022-09-02T12:13:10;13.20;;;4.63;;
68985;SDS011;56035;37.534;-122.308;2022-09-02T12:15:23;12.33;;;5.07;;
68985;SDS011;56035;37.534;-122.308;2022-09-02T12:26:13;11.60;;;4.90;;
68985;SDS011;56035;37.534;-122.308;2022-09-02T12:28:44;11.43;;;5.17;;
68985;SDS011;56035;37.534;-122.308;2022-09-02T12:31:13;13.10;;;5.60;;
68985;SDS011;56035;37.534;-122.308;2022-09-02T12:33:46;11.03;;;5.37;;
68985;SDS011;56035;37.534;-122.308;2022-09-02T12:41:54;11.05;;;5.20;;
68985;SDS011;56035;37.534;-122.308;2022-09-02T12:47:36;12.93;;;5.40;;
68985;SDS011;56035;37.534;-122.308;2022-09-02T12:58:31;12.43;;;5.87;;
68985;SDS011;56035;37.534;-122.308;2022-09-02T13:01:08;12.90;;;6.05;;
68985;SDS011;56035;37.534;-122.308;2022-09-02T13:15:04;13.70;;;5.73;;
68985;SDS011;56035;37.534;-122.308;2022-09-02T13:32:58;13.47;;;6.20;;
68985;SDS011;56035;37.534;-122.308;2022-09-02T13:35:31;14.03;;;5.80;;
68985;SDS011;56035;37.534;-122.308;2022-09-02T13:38:02;14.27;;;6.40;;
68985;SDS011;56035;37.534;-122.308;2022-09-02T13:45:39;14.20;;;6.43;;
68985;SDS011;56035;37.534;-122.308;2022-09-02T13:50:33;12.27;;;6.10;;
68985;SDS011;56035;37.534;-122.308;2022-09-02T13:53:00;16.55;;;7.45;;
68985;SDS011;56035;37.534;-122.308;2022-09-02T13:55:31;17.03;;;7.20;;
68985;SDS011;56035;37.534;-122.308;2022-09-02T13:58:02;16.70;;;8.48;;
68985;SDS011;56035;37.534;-122.308;2022-09-02T14:00:32;18.77;;;8.17;;
68985;SDS011;56035;37.534;-122.308;2022-09-02T14:03:15;15.90;;;7.93;;
68985;SDS011;56035;37.534;-122.308;2022-09-02T14:05:43;22.67;;;9.47;;
68985;SDS011;56035;37.534;-122.308;2022-09-02T14:08:17;19.63;;;9.23;;
68985;SDS011;56035;37.534;-122.308;2022-09-02T14:10:51;23.80;;;10.27;;
68985;SDS011;56035;37.534;-122.308;2022-09-02T14:13:19;22.93;;;11.37;;
68985;SDS011;56035;37.534;-122.308;2022-09-02T14:15:47;24.37;;;10.90;;
68985;SDS011;56035;37.534;-122.308;2022-09-02T14:18:14;24.55;;;10.88;;
68985;SDS011;56035;37.534;-122.308;2022-09-02T14:23:34;26.10;;;12.27;;
68985;SDS011;56035;37.534;-122.308;2022-09-02T14:26:04;27.90;;;13.10;;
68985;SDS011;56035;37.534;-122.308;2022-09-02T14:28:32;30.70;;;12.90;;
68985;SDS011;56035;37.534;-122.308;2022-09-02T14:31:00;30.90;;;12.60;;
68985;SDS011;56035;37.534;-122.308;2022-09-02T14:43:52;28.60;;;13.00;;
68985;SDS011;56035;37.534;-122.308;2022-09-02T14:49:23;30.77;;;14.23;;
68985;SDS011;56035;37.534;-122.308;2022-09-02T14:51:57;27.33;;;13.17;;
68985;SDS011;56035;37.534;-122.308;2022-09-02T14:54:36;28.23;;;13.60;;
68985;SDS011;56035;37.534;-122.308;2022-09-02T14:57:04;31.83;;;14.00;;
68985;SDS011;56035;37.534;-122.308;2022-09-02T14:59:46;30.23;;;13.97;;
68985;SDS011;56035;37.534;-122.308;2022-09-02T15:02:20;31.40;;;14.90;;
68985;SDS011;56035;37.534;-122.308;2022-09-02T15:04:48;28.80;;;14.07;;
68985;SDS011;56035;37.534;-122.308;2022-09-02T15:07:14;32.80;;;15.65;;
68985;SDS011;56035;37.534;-122.308;2022-09-02T15:09:41;30.17;;;15.07;;
68985;SDS011;56035;37.534;-122.308;2022-09-02T15:12:13;31.67;;;14.30;;
68985;SDS011;56035;37.534;-122.308;2022-09-02T15:14:40;29.90;;;15.17;;
68985;SDS011;56035;37.534;-122.308;2022-09-02T15:17:07;26.40;;;14.57;;
68985;SDS011;56035;37.534;-122.308;2022-09-02T15:19:36;26.40;;;13.80;;
68985;SDS011;56035;37.534;-122.308;2022-09-02T15:22:02;22.45;;;13.18;;
68985;SDS011;56035;37.534;-122.308;2022-09-02T15:24:28;20.42;;;12.15;;
68985;SDS011;56035;37.534;-122.308;2022-09-02T15:26:54;22.08;;;11.90;;
68985;SDS011;56035;37.534;-122.308;2022-09-02T15:29:20;18.58;;;11.10;;
68985;SDS011;56035;37.534;-122.308;2022-09-02T15:31:51;19.93;;;12.10;;
68985;SDS011;56035;37.534;-122.308;2022-09-02T15:34:20;17.90;;;10.83;;
68985;SDS011;56035;37.534;-122.308;2022-09-02T15:36:47;17.97;;;10.77;;
68985;SDS011;56035;37.534;-122.308;2022-09-02T15:39:13;19.35;;;11.80;;
68985;SDS011;56035;37.534;-122.308;2022-09-02T15:46:35;18.77;;;11.10;;
68985;SDS011;56035;37.534;-122.308;2022-09-02T15:51:34;16.90;;;10.73;;
68985;SDS011;56035;37.534;-122.308;2022-09-02T15:54:08;18.42;;;11.00;;
68985;SDS011;56035;37.534;-122.308;2022-09-02T15:56:37;15.77;;;10.45;;
68985;SDS011;56035;37.534;-122.308;2022-09-02T15:59:06;20.20;;;11.02;;
68985;SDS011;56035;37.534;-122.308;2022-09-02T16:01:38;15.95;;;10.52;;
68985;SDS011;56035;37.534;-122.308;2022-09-02T16:04:06;17.40;;;11.15;;
68985;SDS011;56035;37.534;-122.308;2022-09-02T16:06:33;18.13;;;11.63;;
68985;SDS011;56035;37.534;-122.308;2022-09-02T16:09:02;16.23;;;10.52;;
68985;SDS011;56035;37.534;-122.308;2022-09-02T16:11:28;21.65;;;11.85;;
68985;SDS011;56035;37.534;-122.308;2022-09-02T16:13:54;17.83;;;11.30;;
68985;SDS011;56035;37.534;-122.308;2022-09-02T16:16:21;19.52;;;11.70;;
68985;SDS011;56035;37.534;-122.308;2022-09-02T16:18:51;17.15;;;11.18;;
68985;SDS011;56035;37.534;-122.308;2022-09-02T16:21:18;17.55;;;11.27;;
68985;SDS011;56035;37.534;-122.308;2022-09-02T16:23:46;16.50;;;10.65;;
68985;SDS011;56035;37.534;-122.308;2022-09-02T16:28:53;17.17;;;11.38;;
68985;SDS011;56035;37.534;-122.308;2022-09-02T16:31:31;18.65;;;12.38;;
68985;SDS011;56035;37.534;-122.308;2022-09-02T16:34:02;18.48;;;11.70;;
68985;SDS011;56035;37.534;-122.308;2022-09-02T16:36:31;17.77;;;11.77;;
68985;SDS011;56035;37.534;-122.308;2022-09-02T16:38:59;18.45;;;12.23;;
68985;SDS011;56035;37.534;-122.308;2022-09-02T16:41:29;16.77;;;11.32;;
68985;SDS011;56035;37.534;-122.308;2022-09-02T16:44:00;15.23;;;10.82;;
68985;SDS011;56035;37.534;-122.308;2022-09-02T16:46:29;13.82;;;9.27;;
68985;SDS011;56035;37.534;-122.308;2022-09-02T16:51:22;14.45;;;9.30;;
68985;SDS011;56035;37.534;-122.308;2022-09-02T16:53:56;11.95;;;8.63;;
68985;SDS011;56035;37.534;-122.308;2022-09-02T16:56:24;13.60;;;9.75;;
68985;SDS011;56035;37.534;-122.308;2022-09-02T16:58:50;12.63;;;9.68;;
68985;SDS011;56035;37.534;-122.308;2022-09-02T17:01:18;14.32;;;10.25;;
68985;SDS011;56035;37.534;-122.308;2022-09-02T17:03:46;14.10;;;10.48;;
68985;SDS011;56035;37.534;-122.308;2022-09-02T17:06:14;16.20;;;10.95;;
68985;SDS011;56035;37.534;-122.308;2022-09-02T17:11:20;18.60;;;13.57;;
68985;SDS011;56035;37.534;-122.308;2022-09-02T17:13:50;19.25;;;13.15;;
68985;SDS011;56035;37.534;-122.308;2022-09-02T17:16:28;19.48;;;13.18;;
68985;SDS011;56035;37.534;-122.308;2022-09-02T17:18:56;20.83;;;14.45;;
68985;SDS011;56035;37.534;-122.308;2022-09-02T17:21:30;18.63;;;13.38;;
68985;SDS011;56035;37.534;-122.308;2022-09-02T17:24:00;20.42;;;14.18;;
68985;SDS011;56035;37.534;-122.308;2022-09-02T17:26:28;18.33;;;13.50;;
68985;SDS011;56035;37.534;-122.308;2022-09-02T17:28:57;18.92;;;14.20;;
68985;SDS011;56035;37.534;-122.308;2022-09-02T17:31:30;20.92;;;14.48;;
68985;SDS011;56035;37.534;-122.308;2022-09-02T17:33:58;20.50;;;15.02;;
68985;SDS011;56035;37.534;-122.308;2022-09-02T17:36:29;18.65;;;13.70;;